CheckWX is a tool to help pilots better visualize weather data.  It is not intended as a substitute for an official pre-flight weather briefing.

17:02:00 UTC

VTPH METAR
Hua Hin Airport
Hua Hin, Thailand
Current

3 hours ago

VTPH 191400Z 25004KT 160V290 9999 SCT028 26/24 Q1010 NOSIG
Observed
Sep-19 @ 14:00 UTC
Wind
  • 250° at 4 KTS
Visibility
10,000+ meters
Flight Rules
VFR
Cloud Levels
  • Scattered at 2,800' AGL
Temperature
26°C / 79°F
Dewpoint
24°C / 75°F
Humidity
89%
Altimeter
29.82" Hg
Pressure
1009.92 hPa
Previous

4 hours ago

VTPH 191300Z 25003KT 180V320 9999 SCT028 25/24 Q1009 NOSIG
Observed
Sep-19 @ 13:00 UTC
Wind
  • 250° at 3 KTS
Visibility
10,000+ meters
Flight Rules
VFR
Cloud Levels
  • Scattered at 2,800' AGL
Temperature
25°C / 77°F
Dewpoint
24°C / 75°F
Humidity
94%
Altimeter
29.79" Hg
Pressure
1008.92 hPa
Previous

5 hours ago

VTPH 191200Z 25003KT 180V270 9999 FEW018 SCT035 25/24 Q1008 NOSIG
Observed
Sep-19 @ 12:00 UTC
Wind
  • 250° at 3 KTS
Visibility
10,000+ meters
Flight Rules
VFR
Cloud Levels
  • Few at 1,800' AGL
  • Scattered at 3,500' AGL
Temperature
25°C / 77°F
Dewpoint
24°C / 75°F
Humidity
94%
Altimeter
29.76" Hg
Pressure
1007.92 hPa